The Bluffs, Vermont
Current Conditions -  °F | °C
As of 3:55 PM on Tuesday 27 Jan 2015 (Local Time) from KEFK Reporting Station
Light Snow Light Snow  
Wind Chill: -15°   Ceiling: 2600
Heat Index:   Visibility: 4mi
Dew Point: -1°   Wind: 21mph
Humidity: 75%   Direction: 350°N
Pressure: 29.83"   Gusts: 26mph
Location:  44.9201°N, 72.2004°W
Report Text: KEFK 272055Z AUTO 35018G23KT 4SM -SN OVC026 M14/M18 A2983 RMK AO2 T11451181
Loading
Personal Weather Stations






























Interactive Weather Map New forecast layout! Learn more

10-Day Weather Forecast

Advertisements
Track Severe Weather on mobile